sensor_id;sensor_type;location;lat;lon;timestamp;P1;durP1;ratioP1;P2;durP2;ratioP2
7045;SDS011;3564;53.326;10.356;2023-08-17T00:02:16;3.70;;;2.17;;
7045;SDS011;3564;53.326;10.356;2023-08-17T00:04:42;6.87;;;2.07;;
7045;SDS011;3564;53.326;10.356;2023-08-17T00:07:13;5.80;;;2.00;;
7045;SDS011;3564;53.326;10.356;2023-08-17T00:09:39;7.47;;;2.63;;
7045;SDS011;3564;53.326;10.356;2023-08-17T00:12:13;6.57;;;2.17;;
7045;SDS011;3564;53.326;10.356;2023-08-17T00:14:42;4.40;;;1.77;;
7045;SDS011;3564;53.326;10.356;2023-08-17T00:17:08;6.37;;;1.97;;
7045;SDS011;3564;53.326;10.356;2023-08-17T00:19:33;5.50;;;2.00;;
7045;SDS011;3564;53.326;10.356;2023-08-17T00:21:59;5.20;;;1.97;;
7045;SDS011;3564;53.326;10.356;2023-08-17T00:24:27;3.73;;;1.97;;
7045;SDS011;3564;53.326;10.356;2023-08-17T00:26:53;3.33;;;2.00;;
7045;SDS011;3564;53.326;10.356;2023-08-17T00:29:18;4.97;;;2.03;;
7045;SDS011;3564;53.326;10.356;2023-08-17T00:31:44;5.67;;;2.03;;
7045;SDS011;3564;53.326;10.356;2023-08-17T00:34:09;3.60;;;1.97;;
7045;SDS011;3564;53.326;10.356;2023-08-17T00:36:35;4.60;;;2.00;;
7045;SDS011;3564;53.326;10.356;2023-08-17T00:39:03;4.83;;;2.30;;
7045;SDS011;3564;53.326;10.356;2023-08-17T00:41:29;4.90;;;2.10;;
7045;SDS011;3564;53.326;10.356;2023-08-17T00:43:55;1.97;;;1.63;;
7045;SDS011;3564;53.326;10.356;2023-08-17T00:46:21;5.33;;;1.80;;
7045;SDS011;3564;53.326;10.356;2023-08-17T00:48:48;5.20;;;2.13;;
7045;SDS011;3564;53.326;10.356;2023-08-17T00:51:14;5.70;;;2.10;;
7045;SDS011;3564;53.326;10.356;2023-08-17T00:53:40;7.00;;;2.20;;
7045;SDS011;3564;53.326;10.356;2023-08-17T00:56:07;4.27;;;1.87;;
7045;SDS011;3564;53.326;10.356;2023-08-17T00:58:36;3.57;;;1.73;;
7045;SDS011;3564;53.326;10.356;2023-08-17T01:01:01;6.93;;;1.90;;
7045;SDS011;3564;53.326;10.356;2023-08-17T01:03:28;4.47;;;2.10;;
7045;SDS011;3564;53.326;10.356;2023-08-17T01:05:55;3.60;;;1.73;;
7045;SDS011;3564;53.326;10.356;2023-08-17T01:08:22;3.90;;;2.00;;
7045;SDS011;3564;53.326;10.356;2023-08-17T01:13:29;6.97;;;2.00;;
7045;SDS011;3564;53.326;10.356;2023-08-17T01:16:01;2.63;;;1.77;;
7045;SDS011;3564;53.326;10.356;2023-08-17T01:18:31;4.10;;;2.10;;
7045;SDS011;3564;53.326;10.356;2023-08-17T01:20:59;6.83;;;1.90;;
7045;SDS011;3564;53.326;10.356;2023-08-17T01:23:27;4.50;;;2.07;;
7045;SDS011;3564;53.326;10.356;2023-08-17T01:25:59;4.87;;;1.97;;
7045;SDS011;3564;53.326;10.356;2023-08-17T01:28:24;3.47;;;1.90;;
7045;SDS011;3564;53.326;10.356;2023-08-17T01:31:11;4.20;;;2.17;;
7045;SDS011;3564;53.326;10.356;2023-08-17T01:33:47;1.90;;;1.50;;
7045;SDS011;3564;53.326;10.356;2023-08-17T01:36:22;5.07;;;2.13;;
7045;SDS011;3564;53.326;10.356;2023-08-17T01:38:54;5.97;;;1.90;;
7045;SDS011;3564;53.326;10.356;2023-08-17T01:41:22;3.10;;;1.90;;
7045;SDS011;3564;53.326;10.356;2023-08-17T01:43:50;3.30;;;1.73;;
7045;SDS011;3564;53.326;10.356;2023-08-17T01:46:17;4.10;;;2.23;;
7045;SDS011;3564;53.326;10.356;2023-08-17T01:48:43;5.70;;;2.07;;
7045;SDS011;3564;53.326;10.356;2023-08-17T01:51:10;2.70;;;2.13;;
7045;SDS011;3564;53.326;10.356;2023-08-17T01:53:36;2.60;;;2.07;;
7045;SDS011;3564;53.326;10.356;2023-08-17T01:56:02;4.90;;;2.20;;
7045;SDS011;3564;53.326;10.356;2023-08-17T01:58:28;4.73;;;2.33;;
7045;SDS011;3564;53.326;10.356;2023-08-17T02:00:53;7.90;;;1.93;;
7045;SDS011;3564;53.326;10.356;2023-08-17T02:03:19;3.47;;;2.00;;
7045;SDS011;3564;53.326;10.356;2023-08-17T02:05:45;7.67;;;2.27;;
7045;SDS011;3564;53.326;10.356;2023-08-17T02:08:11;3.57;;;2.13;;
7045;SDS011;3564;53.326;10.356;2023-08-17T02:10:36;4.43;;;2.10;;
7045;SDS011;3564;53.326;10.356;2023-08-17T02:13:14;4.47;;;2.17;;
7045;SDS011;3564;53.326;10.356;2023-08-17T02:15:40;5.20;;;2.30;;
7045;SDS011;3564;53.326;10.356;2023-08-17T02:18:06;5.27;;;2.03;;
7045;SDS011;3564;53.326;10.356;2023-08-17T02:20:31;6.23;;;1.97;;
7045;SDS011;3564;53.326;10.356;2023-08-17T02:23:00;5.20;;;2.07;;
7045;SDS011;3564;53.326;10.356;2023-08-17T02:25:29;6.97;;;2.20;;
7045;SDS011;3564;53.326;10.356;2023-08-17T02:28:03;3.83;;;2.20;;
7045;SDS011;3564;53.326;10.356;2023-08-17T02:30:29;5.50;;;2.30;;
7045;SDS011;3564;53.326;10.356;2023-08-17T02:32:54;6.87;;;2.20;;
7045;SDS011;3564;53.326;10.356;2023-08-17T02:35:20;6.37;;;2.00;;
7045;SDS011;3564;53.326;10.356;2023-08-17T02:37:45;5.17;;;2.30;;
7045;SDS011;3564;53.326;10.356;2023-08-17T02:40:11;3.90;;;1.90;;
7045;SDS011;3564;53.326;10.356;2023-08-17T02:42:37;4.57;;;2.43;;
7045;SDS011;3564;53.326;10.356;2023-08-17T02:45:04;5.63;;;2.27;;
7045;SDS011;3564;53.326;10.356;2023-08-17T02:47:31;5.03;;;2.33;;
7045;SDS011;3564;53.326;10.356;2023-08-17T02:49:57;6.13;;;2.03;;
7045;SDS011;3564;53.326;10.356;2023-08-17T02:52:22;6.97;;;2.13;;
7045;SDS011;3564;53.326;10.356;2023-08-17T02:54:48;4.03;;;2.07;;
7045;SDS011;3564;53.326;10.356;2023-08-17T02:57:13;6.13;;;2.23;;
7045;SDS011;3564;53.326;10.356;2023-08-17T02:59:42;4.47;;;2.33;;
7045;SDS011;3564;53.326;10.356;2023-08-17T03:02:07;7.27;;;2.43;;
7045;SDS011;3564;53.326;10.356;2023-08-17T03:04:33;4.03;;;2.20;;
7045;SDS011;3564;53.326;10.356;2023-08-17T03:06:58;3.87;;;2.10;;
7045;SDS011;3564;53.326;10.356;2023-08-17T03:09:27;7.13;;;2.10;;
7045;SDS011;3564;53.326;10.356;2023-08-17T03:11:53;7.70;;;2.70;;
7045;SDS011;3564;53.326;10.356;2023-08-17T03:14:18;4.50;;;2.53;;
7045;SDS011;3564;53.326;10.356;2023-08-17T03:16:44;6.80;;;2.10;;
7045;SDS011;3564;53.326;10.356;2023-08-17T03:19:09;4.10;;;2.27;;
7045;SDS011;3564;53.326;10.356;2023-08-17T03:21:36;7.50;;;2.07;;
7045;SDS011;3564;53.326;10.356;2023-08-17T03:24:02;3.40;;;1.93;;
7045;SDS011;3564;53.326;10.356;2023-08-17T03:26:28;5.63;;;2.33;;
7045;SDS011;3564;53.326;10.356;2023-08-17T03:28:53;4.77;;;2.20;;
7045;SDS011;3564;53.326;10.356;2023-08-17T03:31:22;4.97;;;2.20;;
7045;SDS011;3564;53.326;10.356;2023-08-17T03:33:48;4.40;;;1.90;;
7045;SDS011;3564;53.326;10.356;2023-08-17T03:36:14;4.43;;;2.13;;
7045;SDS011;3564;53.326;10.356;2023-08-17T03:38:39;6.63;;;2.50;;
7045;SDS011;3564;53.326;10.356;2023-08-17T03:41:05;5.47;;;2.47;;
7045;SDS011;3564;53.326;10.356;2023-08-17T03:43:31;4.03;;;2.33;;
7045;SDS011;3564;53.326;10.356;2023-08-17T03:45:59;4.27;;;2.50;;
7045;SDS011;3564;53.326;10.356;2023-08-17T03:48:25;5.77;;;2.77;;
7045;SDS011;3564;53.326;10.356;2023-08-17T03:50:54;3.77;;;2.33;;
7045;SDS011;3564;53.326;10.356;2023-08-17T03:53:20;7.93;;;2.80;;
7045;SDS011;3564;53.326;10.356;2023-08-17T03:55:47;4.03;;;2.10;;
7045;SDS011;3564;53.326;10.356;2023-08-17T03:58:16;4.30;;;2.17;;
7045;SDS011;3564;53.326;10.356;2023-08-17T04:00:48;3.73;;;2.03;;
7045;SDS011;3564;53.326;10.356;2023-08-17T04:03:18;4.93;;;2.33;;
7045;SDS011;3564;53.326;10.356;2023-08-17T04:05:44;5.70;;;2.40;;
7045;SDS011;3564;53.326;10.356;2023-08-17T04:08:10;5.67;;;2.60;;
7045;SDS011;3564;53.326;10.356;2023-08-17T04:10:38;7.73;;;2.90;;
7045;SDS011;3564;53.326;10.356;2023-08-17T04:13:04;6.73;;;2.10;;
7045;SDS011;3564;53.326;10.356;2023-08-17T04:15:33;3.93;;;2.03;;
7045;SDS011;3564;53.326;10.356;2023-08-17T04:18:01;6.33;;;2.07;;
7045;SDS011;3564;53.326;10.356;2023-08-17T04:20:27;5.77;;;2.40;;
7045;SDS011;3564;53.326;10.356;2023-08-17T04:22:52;4.13;;;2.20;;
7045;SDS011;3564;53.326;10.356;2023-08-17T04:25:18;3.00;;;1.93;;
7045;SDS011;3564;53.326;10.356;2023-08-17T04:27:46;8.17;;;2.57;;
7045;SDS011;3564;53.326;10.356;2023-08-17T04:30:12;6.83;;;2.80;;
7045;SDS011;3564;53.326;10.356;2023-08-17T04:32:43;6.67;;;3.13;;
7045;SDS011;3564;53.326;10.356;2023-08-17T04:35:15;9.30;;;2.97;;
7045;SDS011;3564;53.326;10.356;2023-08-17T04:37:49;8.60;;;3.70;;
7045;SDS011;3564;53.326;10.356;2023-08-17T04:40:15;10.03;;;2.90;;
7045;SDS011;3564;53.326;10.356;2023-08-17T04:42:41;7.90;;;3.13;;
7045;SDS011;3564;53.326;10.356;2023-08-17T04:45:07;6.37;;;3.13;;
7045;SDS011;3564;53.326;10.356;2023-08-17T04:47:36;5.60;;;3.03;;
7045;SDS011;3564;53.326;10.356;2023-08-17T04:50:05;4.90;;;3.00;;
7045;SDS011;3564;53.326;10.356;2023-08-17T04:52:31;6.17;;;3.00;;
7045;SDS011;3564;53.326;10.356;2023-08-17T04:54:56;6.47;;;3.30;;
7045;SDS011;3564;53.326;10.356;2023-08-17T04:57:22;6.53;;;3.80;;
7045;SDS011;3564;53.326;10.356;2023-08-17T04:59:47;5.97;;;3.07;;
7045;SDS011;3564;53.326;10.356;2023-08-17T05:02:13;5.93;;;2.80;;
7045;SDS011;3564;53.326;10.356;2023-08-17T05:04:39;6.80;;;3.47;;
7045;SDS011;3564;53.326;10.356;2023-08-17T05:07:05;6.87;;;3.30;;
7045;SDS011;3564;53.326;10.356;2023-08-17T05:09:30;4.67;;;2.60;;
7045;SDS011;3564;53.326;10.356;2023-08-17T05:11:56;8.73;;;2.60;;
7045;SDS011;3564;53.326;10.356;2023-08-17T05:14:25;7.07;;;2.57;;
7045;SDS011;3564;53.326;10.356;2023-08-17T05:16:50;4.40;;;2.50;;
7045;SDS011;3564;53.326;10.356;2023-08-17T05:19:19;6.70;;;2.80;;
7045;SDS011;3564;53.326;10.356;2023-08-17T05:21:44;4.57;;;2.40;;
7045;SDS011;3564;53.326;10.356;2023-08-17T05:24:13;4.30;;;2.07;;
7045;SDS011;3564;53.326;10.356;2023-08-17T05:26:39;2.50;;;1.93;;
7045;SDS011;3564;53.326;10.356;2023-08-17T05:29:04;4.27;;;2.47;;
7045;SDS011;3564;53.326;10.356;2023-08-17T05:31:30;2.87;;;1.77;;
7045;SDS011;3564;53.326;10.356;2023-08-17T05:33:55;6.23;;;2.50;;
7045;SDS011;3564;53.326;10.356;2023-08-17T05:36:24;3.53;;;2.20;;
7045;SDS011;3564;53.326;10.356;2023-08-17T05:38:53;4.50;;;2.23;;
7045;SDS011;3564;53.326;10.356;2023-08-17T05:41:18;4.77;;;2.27;;
7045;SDS011;3564;53.326;10.356;2023-08-17T05:43:44;5.50;;;2.20;;
7045;SDS011;3564;53.326;10.356;2023-08-17T05:46:09;5.23;;;2.83;;
7045;SDS011;3564;53.326;10.356;2023-08-17T05:48:35;8.17;;;2.67;;
7045;SDS011;3564;53.326;10.356;2023-08-17T05:51:00;5.43;;;2.40;;
7045;SDS011;3564;53.326;10.356;2023-08-17T05:53:26;4.47;;;2.33;;
7045;SDS011;3564;53.326;10.356;2023-08-17T05:55:54;2.80;;;2.00;;
7045;SDS011;3564;53.326;10.356;2023-08-17T05:58:20;4.43;;;2.10;;
7045;SDS011;3564;53.326;10.356;2023-08-17T06:00:45;4.67;;;2.10;;
7045;SDS011;3564;53.326;10.356;2023-08-17T06:03:11;6.70;;;2.13;;
7045;SDS011;3564;53.326;10.356;2023-08-17T06:05:37;1.90;;;1.70;;
7045;SDS011;3564;53.326;10.356;2023-08-17T06:08:04;2.53;;;1.87;;
7045;SDS011;3564;53.326;10.356;2023-08-17T06:10:33;2.50;;;1.50;;
7045;SDS011;3564;53.326;10.356;2023-08-17T06:13:01;3.43;;;1.67;;
7045;SDS011;3564;53.326;10.356;2023-08-17T06:15:27;2.50;;;1.70;;
7045;SDS011;3564;53.326;10.356;2023-08-17T06:17:52;6.83;;;2.00;;
7045;SDS011;3564;53.326;10.356;2023-08-17T06:20:18;3.03;;;1.60;;
7045;SDS011;3564;53.326;10.356;2023-08-17T06:22:44;1.97;;;1.50;;
7045;SDS011;3564;53.326;10.356;2023-08-17T06:25:10;2.60;;;1.30;;
7045;SDS011;3564;53.326;10.356;2023-08-17T06:27:36;3.13;;;1.60;;
7045;SDS011;3564;53.326;10.356;2023-08-17T06:30:04;2.53;;;1.60;;
7045;SDS011;3564;53.326;10.356;2023-08-17T06:32:31;2.53;;;1.60;;
7045;SDS011;3564;53.326;10.356;2023-08-17T06:34:57;3.87;;;1.60;;
7045;SDS011;3564;53.326;10.356;2023-08-17T06:37:23;1.93;;;1.40;;
7045;SDS011;3564;53.326;10.356;2023-08-17T06:39:48;1.83;;;1.50;;
7045;SDS011;3564;53.326;10.356;2023-08-17T06:42:14;5.13;;;1.60;;
7045;SDS011;3564;53.326;10.356;2023-08-17T06:44:43;1.90;;;1.40;;
7045;SDS011;3564;53.326;10.356;2023-08-17T06:47:08;2.60;;;1.57;;
7045;SDS011;3564;53.326;10.356;2023-08-17T06:49:35;1.60;;;1.50;;
7045;SDS011;3564;53.326;10.356;2023-08-17T06:52:01;1.60;;;1.47;;
7045;SDS011;3564;53.326;10.356;2023-08-17T06:54:26;1.97;;;1.43;;
7045;SDS011;3564;53.326;10.356;2023-08-17T06:56:52;1.70;;;1.40;;
7045;SDS011;3564;53.326;10.356;2023-08-17T06:59:18;1.53;;;1.30;;
7045;SDS011;3564;53.326;10.356;2023-08-17T07:01:47;2.27;;;1.53;;
7045;SDS011;3564;53.326;10.356;2023-08-17T07:04:12;2.43;;;1.50;;
7045;SDS011;3564;53.326;10.356;2023-08-17T07:06:38;3.47;;;1.57;;
7045;SDS011;3564;53.326;10.356;2023-08-17T07:09:05;4.20;;;2.20;;
7045;SDS011;3564;53.326;10.356;2023-08-17T07:11:31;2.90;;;1.80;;
7045;SDS011;3564;53.326;10.356;2023-08-17T07:13:57;2.93;;;2.17;;
7045;SDS011;3564;53.326;10.356;2023-08-17T07:16:26;2.47;;;1.60;;
7045;SDS011;3564;53.326;10.356;2023-08-17T07:18:52;3.40;;;1.80;;
7045;SDS011;3564;53.326;10.356;2023-08-17T07:21:17;3.77;;;1.40;;
7045;SDS011;3564;53.326;10.356;2023-08-17T07:23:44;2.50;;;1.90;;
7045;SDS011;3564;53.326;10.356;2023-08-17T07:26:10;6.33;;;1.80;;
7045;SDS011;3564;53.326;10.356;2023-08-17T07:28:36;2.50;;;1.73;;
7045;SDS011;3564;53.326;10.356;2023-08-17T07:31:02;2.83;;;1.53;;
7045;SDS011;3564;53.326;10.356;2023-08-17T07:33:27;1.60;;;1.50;;
7045;SDS011;3564;53.326;10.356;2023-08-17T07:35:53;2.73;;;1.70;;
7045;SDS011;3564;53.326;10.356;2023-08-17T07:38:20;2.10;;;1.90;;
7045;SDS011;3564;53.326;10.356;2023-08-17T07:40:49;2.00;;;1.70;;
7045;SDS011;3564;53.326;10.356;2023-08-17T07:43:15;2.07;;;1.60;;
7045;SDS011;3564;53.326;10.356;2023-08-17T07:45:40;2.47;;;1.87;;
7045;SDS011;3564;53.326;10.356;2023-08-17T07:48:06;3.90;;;1.67;;
7045;SDS011;3564;53.326;10.356;2023-08-17T07:50:37;2.47;;;1.70;;
7045;SDS011;3564;53.326;10.356;2023-08-17T07:53:03;3.40;;;2.00;;
7045;SDS011;3564;53.326;10.356;2023-08-17T07:55:29;4.00;;;1.73;;
7045;SDS011;3564;53.326;10.356;2023-08-17T07:57:54;2.23;;;1.60;;
7045;SDS011;3564;53.326;10.356;2023-08-17T08:00:20;2.93;;;1.60;;
7045;SDS011;3564;53.326;10.356;2023-08-17T08:02:46;3.37;;;1.60;;
7045;SDS011;3564;53.326;10.356;2023-08-17T08:05:11;4.77;;;1.70;;
7045;SDS011;3564;53.326;10.356;2023-08-17T08:07:39;4.40;;;2.00;;
7045;SDS011;3564;53.326;10.356;2023-08-17T08:10:04;6.93;;;1.90;;
7045;SDS011;3564;53.326;10.356;2023-08-17T08:12:30;2.83;;;1.63;;
7045;SDS011;3564;53.326;10.356;2023-08-17T08:14:56;3.83;;;1.90;;
7045;SDS011;3564;53.326;10.356;2023-08-17T08:17:21;2.20;;;1.70;;
7045;SDS011;3564;53.326;10.356;2023-08-17T08:19:47;5.43;;;1.70;;
7045;SDS011;3564;53.326;10.356;2023-08-17T08:22:13;2.30;;;1.80;;
7045;SDS011;3564;53.326;10.356;2023-08-17T08:24:38;2.10;;;1.50;;
7045;SDS011;3564;53.326;10.356;2023-08-17T08:27:06;1.60;;;1.50;;
7045;SDS011;3564;53.326;10.356;2023-08-17T08:29:31;2.90;;;1.90;;
7045;SDS011;3564;53.326;10.356;2023-08-17T08:31:57;1.90;;;1.60;;
7045;SDS011;3564;53.326;10.356;2023-08-17T08:34:24;3.27;;;1.70;;
7045;SDS011;3564;53.326;10.356;2023-08-17T08:36:53;3.07;;;1.77;;
7045;SDS011;3564;53.326;10.356;2023-08-17T08:39:18;2.50;;;1.90;;
7045;SDS011;3564;53.326;10.356;2023-08-17T08:41:44;3.50;;;2.10;;
7045;SDS011;3564;53.326;10.356;2023-08-17T08:44:19;2.97;;;1.87;;
7045;SDS011;3564;53.326;10.356;2023-08-17T08:46:45;4.37;;;1.97;;
7045;SDS011;3564;53.326;10.356;2023-08-17T08:49:16;3.17;;;1.87;;
7045;SDS011;3564;53.326;10.356;2023-08-17T08:51:46;7.27;;;2.10;;
7045;SDS011;3564;53.326;10.356;2023-08-17T08:54:20;2.43;;;1.67;;
7045;SDS011;3564;53.326;10.356;2023-08-17T08:56:51;5.60;;;2.10;;
7045;SDS011;3564;53.326;10.356;2023-08-17T08:59:26;2.43;;;2.17;;
7045;SDS011;3564;53.326;10.356;2023-08-17T09:01:53;2.53;;;2.00;;
7045;SDS011;3564;53.326;10.356;2023-08-17T09:04:21;3.67;;;1.80;;
7045;SDS011;3564;53.326;10.356;2023-08-17T09:06:48;4.87;;;1.80;;
7045;SDS011;3564;53.326;10.356;2023-08-17T09:09:15;2.37;;;1.80;;
7045;SDS011;3564;53.326;10.356;2023-08-17T09:11:42;3.83;;;2.10;;
7045;SDS011;3564;53.326;10.356;2023-08-17T09:14:07;2.73;;;1.80;;
7045;SDS011;3564;53.326;10.356;2023-08-17T09:16:34;3.40;;;1.73;;
7045;SDS011;3564;53.326;10.356;2023-08-17T09:19:03;2.83;;;1.93;;
7045;SDS011;3564;53.326;10.356;2023-08-17T09:21:31;3.67;;;1.90;;
7045;SDS011;3564;53.326;10.356;2023-08-17T09:24:00;4.10;;;1.90;;
7045;SDS011;3564;53.326;10.356;2023-08-17T09:26:29;3.00;;;1.97;;
7045;SDS011;3564;53.326;10.356;2023-08-17T09:28:57;3.37;;;1.60;;
7045;SDS011;3564;53.326;10.356;2023-08-17T09:31:24;3.60;;;1.87;;
7045;SDS011;3564;53.326;10.356;2023-08-17T09:33:50;2.87;;;1.73;;
7045;SDS011;3564;53.326;10.356;2023-08-17T09:36:19;2.30;;;1.50;;
7045;SDS011;3564;53.326;10.356;2023-08-17T09:38:51;2.80;;;1.70;;
7045;SDS011;3564;53.326;10.356;2023-08-17T09:41:17;2.27;;;1.60;;
7045;SDS011;3564;53.326;10.356;2023-08-17T09:43:44;1.50;;;1.40;;
7045;SDS011;3564;53.326;10.356;2023-08-17T09:46:10;3.00;;;1.73;;
7045;SDS011;3564;53.326;10.356;2023-08-17T09:48:36;3.40;;;1.60;;
7045;SDS011;3564;53.326;10.356;2023-08-17T09:51:02;3.30;;;1.50;;
7045;SDS011;3564;53.326;10.356;2023-08-17T09:53:28;2.97;;;1.43;;
7045;SDS011;3564;53.326;10.356;2023-08-17T09:55:53;1.63;;;1.40;;
7045;SDS011;3564;53.326;10.356;2023-08-17T09:58:22;2.97;;;1.70;;
7045;SDS011;3564;53.326;10.356;2023-08-17T10:00:48;2.03;;;1.57;;
7045;SDS011;3564;53.326;10.356;2023-08-17T10:03:15;3.83;;;1.87;;
7045;SDS011;3564;53.326;10.356;2023-08-17T10:05:43;1.83;;;1.60;;
7045;SDS011;3564;53.326;10.356;2023-08-17T10:08:10;1.60;;;1.40;;
7045;SDS011;3564;53.326;10.356;2023-08-17T10:10:40;2.70;;;1.60;;
7045;SDS011;3564;53.326;10.356;2023-08-17T10:13:10;2.07;;;1.50;;
7045;SDS011;3564;53.326;10.356;2023-08-17T10:15:37;2.00;;;1.43;;
7045;SDS011;3564;53.326;10.356;2023-08-17T10:18:23;2.07;;;1.50;;
7045;SDS011;3564;53.326;10.356;2023-08-17T10:21:13;1.50;;;1.40;;
7045;SDS011;3564;53.326;10.356;2023-08-17T10:23:42;1.57;;;1.43;;
7045;SDS011;3564;53.326;10.356;2023-08-17T10:26:11;3.47;;;1.70;;
7045;SDS011;3564;53.326;10.356;2023-08-17T10:28:36;1.93;;;1.50;;
7045;SDS011;3564;53.326;10.356;2023-08-17T10:31:03;2.73;;;1.37;;
7045;SDS011;3564;53.326;10.356;2023-08-17T10:33:29;2.57;;;1.53;;
7045;SDS011;3564;53.326;10.356;2023-08-17T10:35:55;1.67;;;1.27;;
7045;SDS011;3564;53.326;10.356;2023-08-17T10:38:27;2.80;;;1.50;;
7045;SDS011;3564;53.326;10.356;2023-08-17T10:41:09;2.40;;;1.40;;
7045;SDS011;3564;53.326;10.356;2023-08-17T10:44:00;3.70;;;1.47;;
7045;SDS011;3564;53.326;10.356;2023-08-17T10:46:34;3.20;;;1.30;;
7045;SDS011;3564;53.326;10.356;2023-08-17T10:49:05;2.60;;;1.37;;
7045;SDS011;3564;53.326;10.356;2023-08-17T10:51:32;2.20;;;1.37;;
7045;SDS011;3564;53.326;10.356;2023-08-17T10:53:58;2.70;;;1.20;;
7045;SDS011;3564;53.326;10.356;2023-08-17T10:56:27;1.90;;;1.30;;
7045;SDS011;3564;53.326;10.356;2023-08-17T10:58:54;1.60;;;1.20;;
7045;SDS011;3564;53.326;10.356;2023-08-17T11:04:10;2.33;;;1.60;;
7045;SDS011;3564;53.326;10.356;2023-08-17T11:06:41;2.53;;;1.60;;
7045;SDS011;3564;53.326;10.356;2023-08-17T11:09:07;4.93;;;1.50;;
7045;SDS011;3564;53.326;10.356;2023-08-17T11:11:34;1.40;;;1.30;;
7045;SDS011;3564;53.326;10.356;2023-08-17T11:14:05;2.60;;;1.40;;
7045;SDS011;3564;53.326;10.356;2023-08-17T11:16:34;3.00;;;1.40;;
7045;SDS011;3564;53.326;10.356;2023-08-17T11:19:00;1.23;;;1.13;;
7045;SDS011;3564;53.326;10.356;2023-08-17T11:21:25;1.93;;;1.20;;
7045;SDS011;3564;53.326;10.356;2023-08-17T11:23:52;1.93;;;1.20;;
7045;SDS011;3564;53.326;10.356;2023-08-17T11:26:24;1.73;;;1.30;;
7045;SDS011;3564;53.326;10.356;2023-08-17T11:28:50;1.83;;;1.40;;
7045;SDS011;3564;53.326;10.356;2023-08-17T11:31:15;1.80;;;1.60;;
7045;SDS011;3564;53.326;10.356;2023-08-17T11:33:41;3.17;;;1.33;;
7045;SDS011;3564;53.326;10.356;2023-08-17T11:36:08;1.77;;;1.50;;
7045;SDS011;3564;53.326;10.356;2023-08-17T11:38:41;1.60;;;1.50;;
7045;SDS011;3564;53.326;10.356;2023-08-17T11:41:11;1.97;;;1.80;;
7045;SDS011;3564;53.326;10.356;2023-08-17T11:43:38;3.37;;;1.77;;
7045;SDS011;3564;53.326;10.356;2023-08-17T11:46:04;2.83;;;1.67;;
7045;SDS011;3564;53.326;10.356;2023-08-17T11:48:30;1.77;;;1.67;;
7045;SDS011;3564;53.326;10.356;2023-08-17T11:50:56;1.90;;;1.70;;
7045;SDS011;3564;53.326;10.356;2023-08-17T11:53:22;1.90;;;1.80;;
7045;SDS011;3564;53.326;10.356;2023-08-17T11:55:51;3.07;;;2.50;;
7045;SDS011;3564;53.326;10.356;2023-08-17T11:58:17;3.93;;;2.23;;
7045;SDS011;3564;53.326;10.356;2023-08-17T12:00:43;2.00;;;1.80;;
7045;SDS011;3564;53.326;10.356;2023-08-17T12:03:15;5.33;;;1.60;;
7045;SDS011;3564;53.326;10.356;2023-08-17T12:05:41;3.60;;;1.77;;
7045;SDS011;3564;53.326;10.356;2023-08-17T12:08:12;2.07;;;1.60;;
7045;SDS011;3564;53.326;10.356;2023-08-17T12:10:44;1.87;;;1.60;;
7045;SDS011;3564;53.326;10.356;2023-08-17T12:13:11;2.10;;;1.80;;
7045;SDS011;3564;53.326;10.356;2023-08-17T12:15:37;3.53;;;2.10;;
7045;SDS011;3564;53.326;10.356;2023-08-17T12:18:04;2.20;;;1.90;;
7045;SDS011;3564;53.326;10.356;2023-08-17T12:20:30;2.00;;;1.80;;
7045;SDS011;3564;53.326;10.356;2023-08-17T12:23:00;2.90;;;1.90;;
7045;SDS011;3564;53.326;10.356;2023-08-17T12:25:27;2.53;;;1.97;;
7045;SDS011;3564;53.326;10.356;2023-08-17T12:27:53;2.83;;;2.00;;
7045;SDS011;3564;53.326;10.356;2023-08-17T12:30:26;3.50;;;1.97;;
7045;SDS011;3564;53.326;10.356;2023-08-17T12:33:01;4.70;;;1.83;;
7045;SDS011;3564;53.326;10.356;2023-08-17T12:35:26;3.23;;;2.10;;
7045;SDS011;3564;53.326;10.356;2023-08-17T12:37:53;3.10;;;1.83;;
7045;SDS011;3564;53.326;10.356;2023-08-17T12:40:19;2.10;;;1.90;;
7045;SDS011;3564;53.326;10.356;2023-08-17T12:42:45;2.73;;;2.17;;
7045;SDS011;3564;53.326;10.356;2023-08-17T12:45:11;4.50;;;2.27;;
7045;SDS011;3564;53.326;10.356;2023-08-17T12:47:37;3.10;;;2.33;;
7045;SDS011;3564;53.326;10.356;2023-08-17T12:50:03;2.23;;;2.07;;
7045;SDS011;3564;53.326;10.356;2023-08-17T12:52:32;2.40;;;2.20;;
7045;SDS011;3564;53.326;10.356;2023-08-17T12:54:57;2.87;;;2.67;;
7045;SDS011;3564;53.326;10.356;2023-08-17T12:57:23;3.77;;;2.43;;
7045;SDS011;3564;53.326;10.356;2023-08-17T12:59:49;3.27;;;2.47;;
7045;SDS011;3564;53.326;10.356;2023-08-17T13:02:15;2.73;;;2.03;;
7045;SDS011;3564;53.326;10.356;2023-08-17T13:04:41;3.13;;;2.20;;
7045;SDS011;3564;53.326;10.356;2023-08-17T13:07:07;3.03;;;2.07;;
7045;SDS011;3564;53.326;10.356;2023-08-17T13:09:32;2.90;;;2.00;;
7045;SDS011;3564;53.326;10.356;2023-08-17T13:12:01;4.17;;;1.97;;
7045;SDS011;3564;53.326;10.356;2023-08-17T13:14:26;3.47;;;2.03;;
7045;SDS011;3564;53.326;10.356;2023-08-17T13:16:52;3.27;;;1.97;;
7045;SDS011;3564;53.326;10.356;2023-08-17T13:19:21;2.93;;;2.10;;
7045;SDS011;3564;53.326;10.356;2023-08-17T13:21:49;2.27;;;1.90;;
7045;SDS011;3564;53.326;10.356;2023-08-17T13:24:15;2.43;;;1.90;;
7045;SDS011;3564;53.326;10.356;2023-08-17T13:26:40;3.23;;;1.80;;
7045;SDS011;3564;53.326;10.356;2023-08-17T13:29:12;3.60;;;1.97;;
7045;SDS011;3564;53.326;10.356;2023-08-17T13:31:38;4.77;;;2.10;;
7045;SDS011;3564;53.326;10.356;2023-08-17T13:34:03;3.33;;;2.00;;
7045;SDS011;3564;53.326;10.356;2023-08-17T13:36:29;2.87;;;2.10;;
7045;SDS011;3564;53.326;10.356;2023-08-17T13:38:54;3.40;;;2.10;;
7045;SDS011;3564;53.326;10.356;2023-08-17T13:41:20;3.30;;;1.80;;
7045;SDS011;3564;53.326;10.356;2023-08-17T13:43:47;2.23;;;1.80;;
7045;SDS011;3564;53.326;10.356;2023-08-17T13:46:12;2.50;;;1.90;;
7045;SDS011;3564;53.326;10.356;2023-08-17T13:48:38;4.43;;;1.87;;
7045;SDS011;3564;53.326;10.356;2023-08-17T13:51:04;2.47;;;2.00;;
7045;SDS011;3564;53.326;10.356;2023-08-17T13:53:29;4.23;;;1.90;;
7045;SDS011;3564;53.326;10.356;2023-08-17T13:55:55;2.23;;;1.80;;
7045;SDS011;3564;53.326;10.356;2023-08-17T13:58:21;3.07;;;1.87;;
7045;SDS011;3564;53.326;10.356;2023-08-17T14:00:46;2.17;;;1.70;;
7045;SDS011;3564;53.326;10.356;2023-08-17T14:03:12;2.03;;;1.83;;
7045;SDS011;3564;53.326;10.356;2023-08-17T14:05:38;2.87;;;2.00;;
7045;SDS011;3564;53.326;10.356;2023-08-17T14:08:03;3.73;;;1.70;;
7045;SDS011;3564;53.326;10.356;2023-08-17T14:10:29;2.73;;;1.77;;
7045;SDS011;3564;53.326;10.356;2023-08-17T14:12:55;2.93;;;1.80;;
7045;SDS011;3564;53.326;10.356;2023-08-17T14:15:20;2.17;;;1.80;;
7045;SDS011;3564;53.326;10.356;2023-08-17T14:17:47;3.27;;;1.73;;
7045;SDS011;3564;53.326;10.356;2023-08-17T14:20:13;2.20;;;1.80;;
7045;SDS011;3564;53.326;10.356;2023-08-17T14:22:39;3.00;;;1.60;;
7045;SDS011;3564;53.326;10.356;2023-08-17T14:25:05;2.27;;;1.37;;
7045;SDS011;3564;53.326;10.356;2023-08-17T14:27:31;2.47;;;1.70;;
7045;SDS011;3564;53.326;10.356;2023-08-17T14:29:56;1.57;;;1.47;;
7045;SDS011;3564;53.326;10.356;2023-08-17T14:32:26;3.67;;;1.87;;
7045;SDS011;3564;53.326;10.356;2023-08-17T14:34:52;3.93;;;2.10;;
7045;SDS011;3564;53.326;10.356;2023-08-17T14:37:20;6.57;;;2.70;;
7045;SDS011;3564;53.326;10.356;2023-08-17T14:39:46;2.93;;;1.63;;
7045;SDS011;3564;53.326;10.356;2023-08-17T14:42:12;2.60;;;1.40;;
7045;SDS011;3564;53.326;10.356;2023-08-17T14:44:37;2.10;;;1.53;;
7045;SDS011;3564;53.326;10.356;2023-08-17T14:47:03;3.87;;;1.70;;
7045;SDS011;3564;53.326;10.356;2023-08-17T14:49:29;2.30;;;1.57;;
7045;SDS011;3564;53.326;10.356;2023-08-17T14:51:54;4.80;;;2.10;;
7045;SDS011;3564;53.326;10.356;2023-08-17T14:54:20;2.70;;;1.80;;
7045;SDS011;3564;53.326;10.356;2023-08-17T14:56:45;3.23;;;1.60;;
7045;SDS011;3564;53.326;10.356;2023-08-17T14:59:14;3.03;;;1.67;;
7045;SDS011;3564;53.326;10.356;2023-08-17T15:01:40;2.50;;;1.50;;
7045;SDS011;3564;53.326;10.356;2023-08-17T15:04:05;4.43;;;2.07;;
7045;SDS011;3564;53.326;10.356;2023-08-17T15:06:31;1.50;;;1.33;;